createdAt,value
2016-05-03T00:00:20.630Z,0
2016-05-03T00:01:20.633Z,0
2016-05-03T00:02:20.636Z,0
2016-05-03T00:03:20.466Z,0
2016-05-03T00:04:20.641Z,0
2016-05-03T00:05:20.629Z,0
2016-05-03T00:06:20.616Z,0
2016-05-03T00:07:20.509Z,0
2016-05-03T00:08:20.309Z,0
2016-05-03T00:09:20.467Z,0
2016-05-03T00:10:20.486Z,0
2016-05-03T00:11:20.629Z,0
2016-05-03T00:12:20.320Z,0
2016-05-03T00:13:20.635Z,0
2016-05-03T00:14:20.309Z,0
2016-05-03T00:15:20.640Z,0
2016-05-03T00:16:20.627Z,0
2016-05-03T00:17:20.489Z,0
2016-05-03T00:18:20.320Z,0
2016-05-03T00:19:20.604Z,0
2016-05-03T00:20:20.623Z,0
2016-05-03T00:21:20.469Z,0
2016-05-03T00:22:21.878Z,0
2016-05-03T00:23:20.475Z,0
2016-05-03T00:24:20.617Z,0
2016-05-03T00:25:20.715Z,0
2016-05-03T00:26:21.077Z,0
2016-05-03T00:27:20.612Z,0
2016-05-03T00:28:21.566Z,0
2016-05-03T00:29:20.616Z,0
2016-05-03T00:30:20.466Z,0
2016-05-03T00:31:20.625Z,0
2016-05-03T00:32:20.629Z,0
2016-05-03T00:33:20.616Z,0
2016-05-03T00:34:20.305Z,0
2016-05-03T00:35:20.464Z,0
2016-05-03T00:36:20.608Z,0
2016-05-03T00:37:20.454Z,0
2016-05-03T00:38:20.335Z,0
2016-05-03T00:39:20.604Z,0
2016-05-03T00:40:20.621Z,0
2016-05-03T00:41:20.624Z,0
2016-05-03T00:42:20.470Z,0
2016-05-03T00:43:20.474Z,0
2016-05-03T00:44:20.148Z,0
2016-05-03T00:45:20.604Z,0
2016-05-03T00:46:20.622Z,0
2016-05-03T00:47:20.453Z,0
2016-05-03T00:48:20.612Z,0
2016-05-03T00:49:20.474Z,0
2016-05-03T00:50:20.601Z,0
2016-05-03T00:51:20.448Z,0
2016-05-03T00:52:20.779Z,0
2016-05-03T00:53:20.453Z,0
2016-05-03T00:54:20.597Z,0
2016-05-03T00:55:20.615Z,0
2016-05-03T00:56:20.602Z,0
2016-05-03T00:57:20.433Z,0
2016-05-03T00:58:20.608Z,0
2016-05-03T00:59:20.610Z,0
2016-05-03T01:00:20.597Z,0
2016-05-03T01:01:20.616Z,0
2016-05-03T01:02:20.618Z,0
2016-05-03T01:03:20.450Z,0
2016-05-03T01:04:20.296Z,0
2016-05-03T01:05:20.454Z,0
2016-05-03T01:06:20.614Z,0
2016-05-03T01:07:20.913Z,0
2016-05-03T01:08:20.463Z,0
2016-05-03T01:09:20.590Z,0
2016-05-03T01:10:20.594Z,0
2016-05-03T01:11:20.595Z,0
2016-05-03T01:12:20.599Z,0
2016-05-03T01:13:20.601Z,0
2016-05-03T01:14:20.447Z,0
2016-05-03T01:15:20.451Z,0
2016-05-03T01:16:20.468Z,0
2016-05-03T01:17:20.612Z,0
2016-05-03T01:18:20.598Z,0
2016-05-03T01:19:20.602Z,0
2016-05-03T01:20:20.589Z,0
2016-05-03T01:21:20.592Z,0
2016-05-03T01:22:20.703Z,0
2016-05-03T01:23:20.284Z,0
2016-05-03T01:24:20.428Z,0
2016-05-03T01:25:20.587Z,0
2016-05-03T01:26:20.292Z,0
2016-05-03T01:27:20.608Z,0
2016-05-03T01:28:20.595Z,0
2016-05-03T01:29:20.597Z,0
2016-05-03T01:30:20.584Z,0
2016-05-03T01:31:20.586Z,0
2016-05-03T01:32:20.465Z,0
2016-05-03T01:33:20.592Z,0
2016-05-03T01:34:20.580Z,0
2016-05-03T01:35:20.583Z,0
2016-05-03T01:36:20.600Z,0
2016-05-03T01:37:20.150Z,0
2016-05-03T01:38:20.434Z,0
2016-05-03T01:39:20.608Z,0
2016-05-03T01:40:20.580Z,0
2016-05-03T01:41:20.458Z,0
2016-05-03T01:42:20.586Z,0
2016-05-03T01:43:20.588Z,0
2016-05-03T01:44:20.607Z,0
2016-05-03T01:45:20.593Z,0
2016-05-03T01:46:20.440Z,0
2016-05-03T01:47:20.615Z,0
2016-05-03T01:48:20.430Z,0
2016-05-03T01:49:20.432Z,0
2016-05-03T01:50:20.576Z,0
2016-05-03T01:51:20.579Z,0
2016-05-03T01:52:21.065Z,0
2016-05-03T01:53:20.585Z,0
2016-05-03T01:54:20.571Z,0
2016-05-03T01:55:20.589Z,0
2016-05-03T01:56:20.562Z,0
2016-05-03T01:57:20.579Z,0
2016-05-03T01:58:20.581Z,0
2016-05-03T01:59:20.412Z,0
2016-05-03T02:00:20.431Z,0
2016-05-03T02:01:20.575Z,0
2016-05-03T02:02:20.561Z,0
2016-05-03T02:03:20.580Z,0
2016-05-03T02:04:20.426Z,0
2016-05-03T02:05:20.429Z,0
2016-05-03T02:06:20.432Z,0
2016-05-03T02:07:20.699Z,0
2016-05-03T02:08:20.437Z,0
2016-05-03T02:09:20.267Z,0
2016-05-03T02:10:20.567Z,0
2016-05-03T02:11:20.570Z,0
2016-05-03T02:12:20.572Z,0
2016-05-03T02:13:20.560Z,0
2016-05-03T02:14:20.563Z,0
2016-05-03T02:15:20.424Z,0
2016-05-03T02:16:20.255Z,0
2016-05-03T02:17:20.555Z,0
2016-05-03T02:18:20.573Z,0
2016-05-03T02:19:20.419Z,0
2016-05-03T02:20:20.563Z,0
2016-05-03T02:21:20.566Z,0
2016-05-03T02:22:21.318Z,0
2016-05-03T02:23:20.555Z,0
2016-05-03T02:24:20.573Z,0
2016-05-03T02:25:20.576Z,0
2016-05-03T02:26:20.423Z,0
2016-05-03T02:27:20.410Z,0
2016-05-03T02:28:20.553Z,0
2016-05-03T02:29:20.571Z,0
2016-05-03T02:30:20.262Z,0
2016-05-03T02:31:20.562Z,0
2016-05-03T02:32:19.954Z,0
2016-05-03T02:33:20.410Z,0
2016-05-03T02:34:20.414Z,0
2016-05-03T02:35:20.541Z,0
2016-05-03T02:36:20.247Z,0
2016-05-03T02:37:21.030Z,0
2016-05-03T02:38:20.409Z,0
2016-05-03T02:39:20.567Z,0
2016-05-03T02:40:20.382Z,0
2016-05-03T02:41:20.541Z,0
2016-05-03T02:42:20.544Z,0
2016-05-03T02:43:20.406Z,0
2016-05-03T02:44:20.566Z,0
2016-05-03T02:45:20.568Z,0
2016-05-03T02:46:20.555Z,0
2016-05-03T02:47:20.542Z,0
2016-05-03T02:48:20.544Z,0
2016-05-03T02:49:20.407Z,0
2016-05-03T02:50:20.549Z,0
2016-05-03T02:51:20.553Z,0
2016-05-03T02:52:20.790Z,0
2016-05-03T02:53:20.543Z,0
2016-05-03T02:54:20.389Z,0
2016-05-03T02:55:20.549Z,0
2016-05-03T02:56:20.394Z,0
2016-05-03T02:57:20.554Z,0
2016-05-03T02:58:20.385Z,0
2016-05-03T02:59:20.387Z,0
2016-05-03T03:00:20.546Z,0
2016-05-03T03:01:20.548Z,0
2016-05-03T03:02:20.520Z,0
2016-05-03T03:03:20.242Z,0
2016-05-03T03:04:20.401Z,0
2016-05-03T03:05:20.543Z,0
2016-05-03T03:06:20.546Z,0
2016-05-03T03:07:20.643Z,0
2016-05-03T03:08:20.551Z,0
2016-05-03T03:09:20.538Z,0
2016-05-03T03:10:20.557Z,0
2016-05-03T03:11:20.544Z,0
2016-05-03T03:12:20.391Z,0
2016-05-03T03:13:20.533Z,0
2016-05-03T03:14:20.537Z,0
2016-05-03T03:15:20.539Z,0
2016-05-03T03:16:20.386Z,0
2016-05-03T03:17:20.389Z,0
2016-05-03T03:18:20.375Z,0
2016-05-03T03:19:20.378Z,0
2016-05-03T03:20:20.537Z,0
2016-05-03T03:21:20.555Z,0
2016-05-03T03:22:20.839Z,0
2016-05-03T03:23:20.530Z,0
2016-05-03T03:24:20.360Z,0
2016-05-03T03:25:20.535Z,0
2016-05-03T03:26:20.521Z,0
2016-05-03T03:27:20.540Z,0
2016-05-03T03:28:20.371Z,0
2016-05-03T03:29:20.390Z,0
2016-05-03T03:30:20.361Z,0
2016-05-03T03:31:20.521Z,0
2016-05-03T03:32:20.523Z,0
2016-05-03T03:33:20.526Z,0
2016-05-03T03:34:20.371Z,0
2016-05-03T03:35:20.515Z,0
2016-05-03T03:36:20.393Z,0
2016-05-03T03:37:20.614Z,0
2016-05-03T03:38:20.539Z,0
2016-05-03T03:39:20.370Z,0
2016-05-03T03:40:20.528Z,0
2016-05-03T03:41:20.375Z,0
2016-05-03T03:42:20.378Z,0
2016-05-03T03:43:20.506Z,0
2016-05-03T03:44:20.353Z,0
2016-05-03T03:45:20.525Z,0
2016-05-03T03:46:20.528Z,0
2016-05-03T03:47:20.500Z,0
2016-05-03T03:48:20.519Z,0
2016-05-03T03:49:20.365Z,0
2016-05-03T03:50:20.197Z,0
2016-05-03T03:51:20.199Z,0
2016-05-03T03:52:20.483Z,0
2016-05-03T03:53:20.516Z,0
2016-05-03T03:54:20.191Z,0
2016-05-03T03:55:20.365Z,0
2016-05-03T03:56:20.525Z,0
2016-05-03T03:57:20.527Z,0
2016-05-03T03:58:20.357Z,0
2016-05-03T03:59:20.517Z,0
2016-05-03T04:00:20.520Z,0
2016-05-03T04:01:20.351Z,0
2016-05-03T04:02:20.510Z,0
2016-05-03T04:03:20.340Z,5
2016-05-03T04:04:20.359Z,5
2016-05-03T04:05:20.346Z,5
2016-05-03T04:06:20.505Z,5
2016-05-03T04:07:22.804Z,5
2016-05-03T04:08:20.337Z,5
2016-05-03T04:09:20.497Z,5
2016-05-03T04:10:20.359Z,5
2016-05-03T04:11:20.346Z,5
2016-05-03T04:12:20.521Z,5
2016-05-03T04:13:20.509Z,5
2016-05-03T04:14:20.494Z,10
2016-05-03T04:15:20.497Z,10
2016-05-03T04:16:20.516Z,10
2016-05-03T04:17:20.331Z,10
2016-05-03T04:18:20.506Z,10
2016-05-03T04:19:20.492Z,10
2016-05-03T04:20:20.339Z,10
2016-05-03T04:21:20.346Z,10
2016-05-03T04:22:20.676Z,10
2016-05-03T04:23:20.445Z,10
2016-05-03T04:24:20.635Z,10
2016-05-03T04:25:20.529Z,10
2016-05-03T04:26:20.730Z,10
2016-05-03T04:27:20.734Z,15
2016-05-03T04:28:20.455Z,15
2016-05-03T04:29:20.772Z,15
2016-05-03T04:30:20.807Z,15
2016-05-03T04:31:20.809Z,15
2016-05-03T04:32:20.817Z,20
2016-05-03T04:33:20.812Z,20
2016-05-03T04:34:20.664Z,20
2016-05-03T04:35:20.830Z,20
2016-05-03T04:36:20.837Z,20
2016-05-03T04:37:21.686Z,20
2016-05-03T04:38:20.816Z,20
2016-05-03T04:39:20.680Z,25
2016-05-03T04:40:20.529Z,25
2016-05-03T04:41:20.831Z,25
2016-05-03T04:42:20.819Z,20
2016-05-03T04:43:20.838Z,20
2016-05-03T04:44:20.685Z,20
2016-05-03T04:45:20.830Z,30
2016-05-03T04:46:20.848Z,30
2016-05-03T04:47:20.836Z,25
2016-05-03T04:48:20.682Z,20
2016-05-03T04:49:20.685Z,20
2016-05-03T04:50:20.829Z,20
2016-05-03T04:51:20.832Z,20
2016-05-03T04:52:20.241Z,20
2016-05-03T04:53:20.837Z,20
2016-05-03T04:54:20.731Z,20
2016-05-03T04:55:20.531Z,20
2016-05-03T04:56:20.830Z,20
2016-05-03T04:57:20.848Z,20
2016-05-03T04:58:20.695Z,25
2016-05-03T04:59:20.698Z,25
2016-05-03T05:00:20.825Z,25
2016-05-03T05:01:20.359Z,30
2016-05-03T05:02:20.846Z,35
2016-05-03T05:03:20.662Z,40
2016-05-03T05:04:20.836Z,40
2016-05-03T05:05:20.839Z,45
2016-05-03T05:06:20.841Z,45
2016-05-03T05:07:20.531Z,45
2016-05-03T05:08:20.519Z,45
2016-05-03T05:09:20.834Z,45
2016-05-03T05:10:20.680Z,45
2016-05-03T05:11:20.839Z,50
2016-05-03T05:12:20.686Z,55
2016-05-03T05:13:20.532Z,55
2016-05-03T05:14:20.675Z,45
2016-05-03T05:15:20.678Z,50
2016-05-03T05:16:20.821Z,50
2016-05-03T05:17:20.824Z,50
2016-05-03T05:18:20.686Z,55
2016-05-03T05:19:20.673Z,60
2016-05-03T05:20:20.832Z,65
2016-05-03T05:21:20.835Z,70
2016-05-03T05:22:20.994Z,65
2016-05-03T05:23:20.934Z,65
2016-05-03T05:24:20.827Z,60
2016-05-03T05:25:20.830Z,60
2016-05-03T05:26:20.832Z,60
2016-05-03T05:27:20.835Z,65
2016-05-03T05:28:20.650Z,65
2016-05-03T05:29:20.809Z,75
2016-05-03T05:30:20.671Z,80
2016-05-03T05:31:20.815Z,80
2016-05-03T05:32:20.817Z,135
2016-05-03T05:33:20.664Z,95
2016-05-03T05:34:20.651Z,90
2016-05-03T05:35:20.653Z,95
2016-05-03T05:36:20.812Z,100
2016-05-03T05:37:20.675Z,120
2016-05-03T05:38:20.817Z,105
2016-05-03T05:39:20.681Z,110
2016-05-03T05:40:20.823Z,120
2016-05-03T05:41:20.669Z,120
2016-05-03T05:42:20.828Z,130
2016-05-03T05:43:20.816Z,255
2016-05-03T05:44:20.818Z,295
2016-05-03T05:45:20.665Z,300
2016-05-03T05:46:20.652Z,295
2016-05-03T05:47:20.827Z,285
2016-05-03T05:48:20.813Z,270
2016-05-03T05:49:20.816Z,310
2016-05-03T05:50:20.804Z,310
2016-05-03T05:51:20.822Z,305
2016-05-03T05:52:21.293Z,300
2016-05-03T05:53:20.671Z,305
2016-05-03T05:54:20.815Z,315
2016-05-03T05:55:20.832Z,165
2016-05-03T05:56:20.835Z,200
2016-05-03T05:57:20.823Z,355
2016-05-03T05:58:20.809Z,395
2016-05-03T05:59:20.671Z,405
2016-05-03T06:00:20.831Z,375
2016-05-03T06:01:20.833Z,400
2016-05-03T06:02:20.836Z,410
2016-05-03T06:03:20.838Z,395
2016-05-03T06:04:20.685Z,440
2016-05-03T06:05:20.845Z,455
2016-05-03T06:06:20.862Z,470
2016-05-03T06:07:21.036Z,470
2016-05-03T06:08:20.852Z,455
2016-05-03T06:09:20.698Z,410
2016-05-03T06:10:20.701Z,345
2016-05-03T06:11:20.845Z,230
2016-05-03T06:12:20.706Z,225
2016-05-03T06:13:20.865Z,230
2016-05-03T06:14:20.697Z,250
2016-05-03T06:15:20.871Z,215
2016-05-03T06:16:20.874Z,215
2016-05-03T06:17:20.845Z,450
2016-05-03T06:18:20.723Z,340
2016-05-03T06:19:20.710Z,280
2016-05-03T06:20:20.728Z,220
2016-05-03T06:21:20.715Z,225
2016-05-03T06:22:21.499Z,385
2016-05-03T06:23:20.721Z,395
2016-05-03T06:24:20.583Z,245
2016-05-03T06:25:20.726Z,245
2016-05-03T06:26:20.900Z,340
2016-05-03T06:27:20.888Z,370
2016-05-03T06:28:20.734Z,245
2016-05-03T06:29:20.752Z,230
2016-05-03T06:30:20.912Z,205
2016-05-03T06:31:20.898Z,195
2016-05-03T06:32:20.901Z,190
2016-05-03T06:33:20.623Z,175
2016-05-03T06:34:20.765Z,165
2016-05-03T06:35:20.909Z,165
2016-05-03T06:36:20.771Z,170
2016-05-03T06:37:20.946Z,160
2016-05-03T06:38:20.619Z,155
2016-05-03T06:39:20.779Z,160
2016-05-03T06:40:20.781Z,185
2016-05-03T06:41:20.769Z,205
2016-05-03T06:42:20.928Z,220
2016-05-03T06:43:20.947Z,250
2016-05-03T06:44:20.636Z,280
2016-05-03T06:45:20.951Z,445
2016-05-03T06:46:20.938Z,315
2016-05-03T06:47:20.800Z,225
2016-05-03T06:48:20.975Z,225
2016-05-03T06:49:20.978Z,225
2016-05-03T06:50:20.824Z,230
2016-05-03T06:51:20.671Z,240
2016-05-03T06:52:21.689Z,275
2016-05-03T06:53:20.988Z,250
2016-05-03T06:54:20.991Z,240
2016-05-03T06:55:20.821Z,240
2016-05-03T06:56:20.841Z,225
2016-05-03T06:57:20.999Z,215
2016-05-03T06:58:20.987Z,215
2016-05-03T06:59:20.833Z,215
2016-05-03T07:00:20.695Z,225
2016-05-03T07:01:20.854Z,265
2016-05-03T07:02:20.841Z,360
2016-05-03T07:03:21.015Z,590
2016-05-03T07:04:21.003Z,395
2016-05-03T07:05:21.006Z,545
2016-05-03T07:06:21.024Z,300
2016-05-03T07:07:21.698Z,530
2016-05-03T07:08:21.045Z,360
2016-05-03T07:09:20.891Z,460
2016-05-03T07:10:20.878Z,350
2016-05-03T07:11:20.897Z,295
2016-05-03T07:12:21.040Z,370
2016-05-03T07:13:21.059Z,555
2016-05-03T07:14:20.748Z,535
2016-05-03T07:15:20.908Z,465
2016-05-03T07:16:21.081Z,290
2016-05-03T07:17:21.069Z,275
2016-05-03T07:18:21.072Z,270
2016-05-03T07:19:20.761Z,260
2016-05-03T07:20:21.061Z,325
2016-05-03T07:21:20.939Z,340
2016-05-03T07:22:21.177Z,300
2016-05-03T07:23:21.069Z,285
2016-05-03T07:24:21.088Z,325
2016-05-03T07:25:21.075Z,750
2016-05-03T07:26:20.780Z,440
2016-05-03T07:27:20.783Z,385
2016-05-03T07:28:20.832Z,370
2016-05-03T07:29:20.946Z,220
2016-05-03T07:30:20.963Z,230
2016-05-03T07:31:20.966Z,355
2016-05-03T07:32:20.954Z,355
2016-05-03T07:33:21.112Z,775
2016-05-03T07:34:21.146Z,360
2016-05-03T07:35:20.961Z,320
2016-05-03T07:36:21.120Z,345
2016-05-03T07:37:21.592Z,405
2016-05-03T07:38:21.140Z,320
2016-05-03T07:39:21.176Z,630
2016-05-03T07:40:21.162Z,610
2016-05-03T07:41:21.149Z,425
2016-05-03T07:42:21.168Z,790
2016-05-03T07:43:21.170Z,840
2016-05-03T07:44:21.173Z,845
2016-05-03T07:45:20.894Z,825
2016-05-03T07:46:21.178Z,860
2016-05-03T07:47:21.025Z,815
2016-05-03T07:48:21.184Z,815
2016-05-03T07:49:21.045Z,820
2016-05-03T07:50:21.205Z,855
2016-05-03T07:51:21.223Z,855
2016-05-03T07:52:21.538Z,865
2016-05-03T07:53:21.228Z,865
2016-05-03T07:54:21.059Z,830
2016-05-03T07:55:21.250Z,760
2016-05-03T07:56:21.221Z,750
2016-05-03T07:57:21.098Z,715
2016-05-03T07:58:21.257Z,895
2016-05-03T07:59:21.260Z,705
2016-05-03T08:00:21.263Z,610
2016-05-03T08:01:21.250Z,805
2016-05-03T08:02:21.285Z,845
2016-05-03T08:03:21.287Z,985
2016-05-03T08:04:21.118Z,605
2016-05-03T08:05:21.324Z,455
2016-05-03T08:06:21.154Z,680
2016-05-03T08:07:21.469Z,680
2016-05-03T08:08:21.176Z,605
2016-05-03T08:09:21.334Z,400
2016-05-03T08:10:21.023Z,355
2016-05-03T08:11:21.168Z,325
2016-05-03T08:12:21.186Z,350
2016-05-03T08:13:21.344Z,550
2016-05-03T08:14:21.332Z,910
2016-05-03T08:15:21.069Z,490
2016-05-03T08:16:21.197Z,515
2016-05-03T08:17:21.356Z,435
2016-05-03T08:18:21.577Z,480
2016-05-03T08:19:21.220Z,505
2016-05-03T08:20:21.394Z,330
2016-05-03T08:21:21.225Z,330
2016-05-03T08:22:21.244Z,675
2016-05-03T08:23:21.262Z,450
2016-05-03T08:24:21.249Z,355
2016-05-03T08:25:21.267Z,390
2016-05-03T08:26:21.427Z,355
2016-05-03T08:27:21.429Z,385
2016-05-03T08:28:21.275Z,425
2016-05-03T08:29:21.294Z,490
2016-05-03T08:30:21.281Z,805
2016-05-03T08:31:21.455Z,810
2016-05-03T08:32:21.458Z,795
2016-05-03T08:33:21.460Z,745
2016-05-03T08:34:21.307Z,845
2016-05-03T08:35:21.466Z,395
2016-05-03T08:36:21.500Z,825
2016-05-03T08:37:21.331Z,810
2016-05-03T08:38:21.568Z,815
2016-05-03T08:39:21.508Z,825
2016-05-03T08:40:21.511Z,810
2016-05-03T08:41:21.514Z,825
2016-05-03T08:42:21.516Z,625
2016-05-03T08:43:21.519Z,325
2016-05-03T08:44:21.523Z,350
2016-05-03T08:45:21.556Z,340
2016-05-03T08:46:21.542Z,350
2016-05-03T08:47:21.562Z,345
2016-05-03T08:48:21.564Z,365
2016-05-03T08:49:21.550Z,350
2016-05-03T08:50:21.569Z,385
2016-05-03T08:51:21.306Z,380
2016-05-03T08:52:21.277Z,365
2016-05-03T08:53:21.608Z,350
2016-05-03T08:54:21.439Z,320
2016-05-03T08:55:21.598Z,270
2016-05-03T08:56:21.601Z,315
2016-05-03T08:57:21.603Z,340
2016-05-03T08:58:21.481Z,325
2016-05-03T08:59:21.484Z,290
2016-05-03T09:00:21.330Z,295
2016-05-03T09:01:21.677Z,335
2016-05-03T09:02:21.491Z,300
2016-05-03T09:03:21.651Z,300
2016-05-03T09:04:21.513Z,335
2016-05-03T09:05:21.516Z,340
2016-05-03T09:06:21.674Z,350
2016-05-03T09:07:21.677Z,330
2016-05-03T09:08:23.024Z,345
2016-05-03T09:09:21.682Z,345
2016-05-03T09:10:21.529Z,310
2016-05-03T09:11:21.688Z,315
2016-05-03T09:12:21.551Z,300
2016-05-03T09:13:21.709Z,295
2016-05-03T09:14:21.712Z,295
2016-05-03T09:15:21.745Z,300
2016-05-03T09:16:21.733Z,305
2016-05-03T09:17:21.767Z,310
2016-05-03T09:18:21.581Z,310
2016-05-03T09:19:22.178Z,310
2016-05-03T09:20:21.759Z,295
2016-05-03T09:21:21.746Z,260
2016-05-03T09:22:21.780Z,260
2016-05-03T09:23:22.158Z,245
2016-05-03T09:24:21.645Z,230
2016-05-03T09:25:21.788Z,230
2016-05-03T09:26:21.806Z,240
2016-05-03T09:27:21.653Z,235
2016-05-03T09:28:21.641Z,235
2016-05-03T09:29:21.658Z,230
2016-05-03T09:30:21.646Z,225
2016-05-03T09:31:21.804Z,215
2016-05-03T09:32:21.666Z,215
2016-05-03T09:33:21.824Z,210
2016-05-03T09:34:21.828Z,210
2016-05-03T09:35:21.690Z,210
2016-05-03T09:36:21.849Z,210
2016-05-03T09:37:21.524Z,205
2016-05-03T09:38:21.713Z,205
2016-05-03T09:39:21.716Z,210
2016-05-03T09:40:21.876Z,210
2016-05-03T09:41:21.878Z,210
2016-05-03T09:42:21.881Z,210
2016-05-03T09:43:21.727Z,215
2016-05-03T09:44:21.902Z,215
2016-05-03T09:45:21.889Z,210
2016-05-03T09:46:21.923Z,210
2016-05-03T09:47:21.910Z,200
2016-05-03T09:48:21.912Z,195
2016-05-03T09:49:21.603Z,180
2016-05-03T09:50:21.917Z,175
2016-05-03T09:51:21.765Z,175
2016-05-03T09:52:21.611Z,175
2016-05-03T09:53:21.785Z,195
2016-05-03T09:54:21.789Z,195
2016-05-03T09:55:21.791Z,195
2016-05-03T09:56:21.637Z,200
2016-05-03T09:57:21.953Z,190
2016-05-03T09:58:21.939Z,160
2016-05-03T09:59:21.942Z,160
2016-05-03T10:00:21.647Z,175
2016-05-03T10:01:21.980Z,180
2016-05-03T10:02:21.825Z,180
2016-05-03T10:03:21.827Z,180
2016-05-03T10:04:21.971Z,175
2016-05-03T10:05:22.005Z,175
2016-05-03T10:06:22.007Z,175
2016-05-03T10:07:22.010Z,175
2016-05-03T10:08:22.107Z,170
2016-05-03T10:09:21.984Z,170
2016-05-03T10:10:22.003Z,170
2016-05-03T10:11:22.006Z,170
2016-05-03T10:12:22.024Z,165
2016-05-03T10:13:22.011Z,165
2016-05-03T10:14:22.029Z,165
2016-05-03T10:15:21.720Z,165
2016-05-03T10:16:22.035Z,165
2016-05-03T10:17:22.053Z,165
2016-05-03T10:18:21.743Z,165
2016-05-03T10:19:21.886Z,165
2016-05-03T10:20:22.062Z,160
2016-05-03T10:21:22.048Z,160
2016-05-03T10:22:21.910Z,160
2016-05-03T10:23:22.131Z,165
2016-05-03T10:24:21.775Z,160
2016-05-03T10:25:22.059Z,160
2016-05-03T10:26:22.078Z,160
2016-05-03T10:27:22.080Z,160
2016-05-03T10:28:22.083Z,160
2016-05-03T10:29:22.086Z,160
2016-05-03T10:30:22.088Z,160
2016-05-03T10:31:22.091Z,160
2016-05-03T10:32:21.938Z,160
2016-05-03T10:33:22.111Z,165
2016-05-03T10:34:22.099Z,165
2016-05-03T10:35:22.117Z,165
2016-05-03T10:36:22.105Z,165
2016-05-03T10:37:21.810Z,170
2016-05-03T10:38:22.282Z,170
2016-05-03T10:39:22.144Z,170
2016-05-03T10:40:22.146Z,170
2016-05-03T10:41:22.149Z,170
2016-05-03T10:42:22.136Z,170
2016-05-03T10:43:22.138Z,175
2016-05-03T10:44:22.141Z,175
2016-05-03T10:45:22.004Z,180
2016-05-03T10:46:22.146Z,185
2016-05-03T10:47:22.165Z,190
2016-05-03T10:48:22.151Z,190
2016-05-03T10:49:22.014Z,180
2016-05-03T10:50:22.157Z,190
2016-05-03T10:51:22.004Z,195
2016-05-03T10:52:22.179Z,200
2016-05-03T10:53:22.181Z,200
2016-05-03T10:54:21.871Z,200
2016-05-03T10:55:22.187Z,200
2016-05-03T10:56:22.205Z,205
2016-05-03T10:57:22.036Z,200
2016-05-03T10:58:22.195Z,205
2016-05-03T10:59:22.197Z,215
2016-05-03T11:00:22.044Z,210
2016-05-03T11:01:22.203Z,220
2016-05-03T11:02:22.064Z,215
2016-05-03T11:03:22.224Z,205
2016-05-03T11:04:21.899Z,220
2016-05-03T11:05:22.213Z,215
2016-05-03T11:06:22.216Z,175
2016-05-03T11:07:22.078Z,150
2016-05-03T11:08:21.860Z,125
2016-05-03T11:09:22.225Z,110
2016-05-03T11:10:22.084Z,100
2016-05-03T11:11:22.245Z,90
2016-05-03T11:12:22.264Z,85
2016-05-03T11:13:22.077Z,70
2016-05-03T11:14:22.268Z,55
2016-05-03T11:15:22.112Z,45
2016-05-03T11:16:22.256Z,40
2016-05-03T11:17:22.118Z,40
2016-05-03T11:18:22.277Z,40
2016-05-03T11:19:22.123Z,40
2016-05-03T11:20:22.126Z,45
2016-05-03T11:21:22.284Z,45
2016-05-03T11:22:21.976Z,45
2016-05-03T11:23:21.978Z,45
2016-05-03T11:24:22.278Z,45
2016-05-03T11:25:22.296Z,40
2016-05-03T11:26:22.298Z,40
2016-05-03T11:27:22.317Z,35
2016-05-03T11:28:22.304Z,30
2016-05-03T11:29:22.150Z,30
2016-05-03T11:30:22.309Z,30
2016-05-03T11:31:22.312Z,30
2016-05-03T11:32:22.174Z,30
2016-05-03T11:33:22.177Z,30
2016-05-03T11:34:22.336Z,30
2016-05-03T11:35:22.166Z,30
2016-05-03T11:36:22.341Z,30
2016-05-03T11:37:22.172Z,35
2016-05-03T11:38:22.033Z,35
2016-05-03T11:39:22.177Z,40
2016-05-03T11:40:22.196Z,40
2016-05-03T11:41:22.198Z,40
2016-05-03T11:42:22.186Z,35
2016-05-03T11:43:22.344Z,35
2016-05-03T11:44:22.191Z,35
2016-05-03T11:45:22.366Z,35
2016-05-03T11:46:22.368Z,35
2016-05-03T11:47:22.214Z,40
2016-05-03T11:48:22.357Z,50
2016-05-03T11:49:22.579Z,60
2016-05-03T11:50:22.207Z,65
2016-05-03T11:51:22.351Z,70
2016-05-03T11:52:22.259Z,70
2016-05-03T11:53:22.371Z,70
2016-05-03T11:54:22.217Z,70
2016-05-03T11:55:22.440Z,70
2016-05-03T11:56:22.395Z,70
2016-05-03T11:57:22.070Z,70
2016-05-03T11:58:22.431Z,70
2016-05-03T11:59:22.075Z,75
2016-05-03T12:00:22.390Z,75
2016-05-03T12:01:22.392Z,75
2016-05-03T12:02:22.412Z,75
2016-05-03T12:03:22.258Z,80
2016-05-03T12:04:22.260Z,80
2016-05-03T12:05:22.263Z,80
2016-05-03T12:06:22.406Z,85
2016-05-03T12:07:22.409Z,85
2016-05-03T12:08:22.272Z,85
2016-05-03T12:09:22.414Z,85
2016-05-03T12:10:22.417Z,85
2016-05-03T12:11:22.280Z,85
2016-05-03T12:12:22.422Z,80
2016-05-03T12:13:22.269Z,75
2016-05-03T12:14:22.287Z,75
2016-05-03T12:15:22.431Z,70
2016-05-03T12:16:22.293Z,65
2016-05-03T12:17:22.435Z,60
2016-05-03T12:18:22.438Z,60
2016-05-03T12:19:22.301Z,60
2016-05-03T12:20:22.460Z,65
2016-05-03T12:21:22.447Z,65
2016-05-03T12:22:22.465Z,65
2016-05-03T12:23:30.908Z,70
2016-05-03T12:24:22.330Z,75
2016-05-03T12:25:22.490Z,80
2016-05-03T12:26:22.460Z,85
2016-05-03T12:27:22.322Z,90
2016-05-03T12:28:22.465Z,95
2016-05-03T12:29:22.312Z,100
2016-05-03T12:30:22.314Z,105
2016-05-03T12:31:22.317Z,110
2016-05-03T12:32:22.336Z,115
2016-05-03T12:33:22.495Z,125
2016-05-03T12:34:22.342Z,130
2016-05-03T12:35:22.484Z,130
2016-05-03T12:36:22.486Z,140
2016-05-03T12:37:22.489Z,145
2016-05-03T12:38:23.024Z,155
2016-05-03T12:39:22.339Z,165
2016-05-03T12:40:22.358Z,175
2016-05-03T12:41:22.516Z,185
2016-05-03T12:42:22.503Z,195
2016-05-03T12:43:22.365Z,205
2016-05-03T12:44:22.352Z,220
2016-05-03T12:45:22.510Z,225
2016-05-03T12:46:22.374Z,235
2016-05-03T12:47:22.361Z,240
2016-05-03T12:48:22.519Z,240
2016-05-03T12:49:22.382Z,240
2016-05-03T12:50:22.384Z,240
2016-05-03T12:51:22.215Z,225
2016-05-03T12:52:22.217Z,225
2016-05-03T12:53:22.220Z,225
2016-05-03T12:54:22.535Z,220
2016-05-03T12:55:22.537Z,220
2016-05-03T12:56:22.540Z,215
2016-05-03T12:57:22.543Z,210
2016-05-03T12:58:22.546Z,210
2016-05-03T12:59:22.549Z,205
2016-05-03T13:00:22.552Z,200
2016-05-03T13:01:22.554Z,195
2016-05-03T13:02:22.432Z,190
2016-05-03T13:03:22.575Z,185
2016-05-03T13:04:22.406Z,185
2016-05-03T13:05:22.581Z,190
2016-05-03T13:06:22.427Z,200
2016-05-03T13:07:22.586Z,195
2016-05-03T13:08:22.479Z,195
2016-05-03T13:09:22.591Z,190
2016-05-03T13:10:22.610Z,180
2016-05-03T13:11:22.581Z,170
2016-05-03T13:12:22.287Z,165
2016-05-03T13:13:22.446Z,165
2016-05-03T13:14:22.621Z,160
2016-05-03T13:15:22.436Z,155
2016-05-03T13:16:22.594Z,155
2016-05-03T13:17:22.300Z,160
2016-05-03T13:18:22.599Z,165
2016-05-03T13:19:22.602Z,175
2016-05-03T13:20:22.621Z,170
2016-05-03T13:21:22.608Z,160
2016-05-03T13:22:22.470Z,145
2016-05-03T13:23:22.896Z,135
2016-05-03T13:24:23.247Z,135
2016-05-03T13:25:22.469Z,130
2016-05-03T13:26:22.658Z,125
2016-05-03T13:27:22.474Z,130
2016-05-03T13:28:22.654Z,140
2016-05-03T13:29:22.713Z,150
2016-05-03T13:30:22.585Z,155
2016-05-03T13:31:22.784Z,160
2016-05-03T13:32:22.844Z,160
2016-05-03T13:33:22.857Z,160
2016-05-03T13:34:22.890Z,150
2016-05-03T13:35:22.908Z,145
2016-05-03T13:36:22.925Z,140
2016-05-03T13:37:22.802Z,130
2016-05-03T13:38:22.798Z,110
2016-05-03T13:39:22.822Z,95
2016-05-03T13:40:22.971Z,90
2016-05-03T13:41:22.979Z,90
2016-05-03T13:42:22.987Z,85
2016-05-03T13:43:22.838Z,85
2016-05-03T13:44:22.842Z,80
2016-05-03T13:45:23.017Z,80
2016-05-03T13:46:23.007Z,75
2016-05-03T13:47:23.012Z,75
2016-05-03T13:48:22.859Z,80
2016-05-03T13:49:23.019Z,80
2016-05-03T13:50:23.022Z,70
2016-05-03T13:51:23.026Z,65
2016-05-03T13:52:23.030Z,65
2016-05-03T13:53:23.047Z,65
2016-05-03T13:54:23.036Z,65
2016-05-03T13:55:23.039Z,70
2016-05-03T13:56:22.729Z,70
2016-05-03T13:57:23.045Z,70
2016-05-03T13:58:22.876Z,70
2016-05-03T13:59:23.050Z,65
2016-05-03T14:00:23.053Z,60
2016-05-03T14:01:23.056Z,55
2016-05-03T14:02:23.074Z,50
2016-05-03T14:03:23.046Z,45
2016-05-03T14:04:23.064Z,45
2016-05-03T14:05:23.067Z,40
2016-05-03T14:06:23.085Z,40
2016-05-03T14:07:22.916Z,40
2016-05-03T14:08:22.980Z,40
2016-05-03T14:09:22.922Z,45
2016-05-03T14:10:23.080Z,45